Time;durP1;ratioP1;P1;durP2;ratioP2;P2;SDS_P1;SDS_P2;PMS_P1;PMS_P2;Temp;Humidity;BMP_temperature;BMP_pressure;BME280_temperature;BME280_humidity;BME280_pressure;Samples;Min_cycle;Max_cycle;Signal;HPM_P1;HPM_P2
2022/06/10 00:01:37;;;;;;;;;;;20.50;67.20;;;19.86;62.44;95610.34;4177194;34;19903;-86
2022/06/10 00:04:06;;;;;;;;;;;20.50;67.20;;;19.87;62.56;95614.75;4154936;34;19910;-85
2022/06/10 00:06:36;;;;;;;;;;;20.50;67.00;;;19.87;62.54;95613.94;4154806;34;20038;-85
2022/06/10 00:09:05;;;;;;;;;;;20.50;67.00;;;19.86;62.69;95615.06;4177692;34;19904;-85
2022/06/10 00:11:34;;;;;;;;;;;20.50;67.00;;;19.86;62.44;95617.84;4154297;34;20121;-85
2022/06/10 00:14:03;;;;;;;;;;;20.50;67.00;;;19.83;62.43;95613.75;4154993;34;19903;-85
2022/06/10 00:16:32;;;;;;;;;;;20.50;66.90;;;19.83;62.52;95613.75;4154564;34;20114;-86
2022/06/10 00:19:01;;;;;;;;;;;20.50;66.80;;;19.84;62.26;95614.59;4154543;34;20138;-86
2022/06/10 00:21:30;;;;;;;;;;;20.50;66.90;;;19.82;62.08;95617.69;4176986;34;20130;-85
2022/06/10 00:24:03;;;;;;;;;;;20.50;66.80;;;19.81;62.16;95618.88;4155227;34;20358;-85
2022/06/10 00:26:41;;;;;;;;;;;20.50;66.80;;;19.81;62.54;95616.09;4177544;34;20122;-85
2022/06/10 00:29:10;;;;;;;;;;;20.50;66.80;;;19.82;62.51;95626.03;4200584;33;20159;-86
2022/06/10 00:31:41;;;;;;;;;;;20.50;66.80;;;19.82;62.21;95634.38;4176958;34;20168;-85
2022/06/10 00:34:10;;;;;;;;;;;20.50;66.80;;;19.83;62.10;95629.63;4177503;34;19903;-86
2022/06/10 00:36:39;;;;;;;;;;;20.50;66.90;;;19.82;62.51;95628.00;4154520;34;19910;-86
2022/06/10 00:39:09;;;;;;;;;;;20.50;66.90;;;19.82;62.14;95633.56;4177441;34;20414;-86
2022/06/10 00:41:41;;;;;;;;;;;20.50;66.90;;;19.79;62.27;95615.63;4199970;33;19914;-85
2022/06/10 00:44:37;;;;;;;;;;;20.50;67.00;;;19.80;62.53;95622.81;4178420;34;19911;-86
2022/06/10 00:47:07;;;;;;;;;;;20.40;66.80;;;19.80;62.36;95633.91;4177091;34;20160;-86
2022/06/10 00:49:36;;;;;;;;;;;20.40;66.90;;;19.80;62.19;95631.16;4154466;34;20090;-86
2022/06/10 00:52:12;;;;;;;;;;;20.50;67.00;;;19.80;62.25;95631.16;4153952;34;20046;-85
2022/06/10 00:54:48;;;;;;;;;;;20.40;66.80;;;19.78;62.35;95619.56;4154559;34;20050;-86
2022/06/10 00:57:20;;;;;;;;;;;20.50;67.00;;;19.77;62.23;95620.72;4177041;34;19903;-86
2022/06/10 00:59:51;;;;;;;;;;;20.40;66.80;;;19.78;62.49;95616.78;4154080;34;19903;-86
2022/06/10 01:02:22;;;;;;;;;;;20.40;66.80;;;19.77;62.54;95626.28;4177245;34;19962;-86
2022/06/10 01:04:51;;;;;;;;;;;20.40;66.70;;;19.76;62.21;95624.66;4154194;34;19909;-86
2022/06/10 01:07:23;;;;;;;;;;;20.40;66.80;;;19.77;62.16;95620.72;4176789;34;19903;-85
2022/06/10 01:09:56;;;;;;;;;;;20.40;66.70;;;19.77;62.36;95615.16;4154049;34;19941;-86
2022/06/10 01:13:07;;;;;;;;;;;20.40;66.70;;;19.76;62.20;95628.22;4177125;34;19903;-86
2022/06/10 01:15:42;;;;;;;;;;;20.40;66.60;;;19.76;62.06;95632.97;4177175;34;20127;-85
2022/06/10 01:18:22;;;;;;;;;;;20.40;66.50;;;19.75;61.97;95634.13;4154030;34;19910;-86
2022/06/10 01:21:01;;;;;;;;;;;20.40;66.50;;;19.74;62.13;95635.28;4153765;34;20135;-85
2022/06/10 01:24:15;;;;;;;;;;;20.40;66.60;;;19.74;62.16;95635.28;4154101;34;19903;-85
2022/06/10 01:30:53;;;;;;;;;;;20.40;66.50;;;19.72;62.26;95640.38;4126501;34;20135;-85
2022/06/10 01:33:30;;;;;;;;;;;20.40;66.50;;;19.73;62.08;95647.53;4149431;34;20050;-85
2022/06/10 01:36:09;;;;;;;;;;;20.40;66.60;;;19.71;62.27;95649.84;4149521;34;19911;-86
2022/06/10 01:38:44;;;;;;;;;;;20.40;66.50;;;19.70;62.05;95645.44;4126794;34;20074;-85
2022/06/10 01:41:16;;;;;;;;;;;20.40;66.60;;;19.71;61.95;95656.22;4148938;34;19904;-86
2022/06/10 01:43:54;;;;;;;;;;;20.40;66.60;;;19.71;62.05;95649.84;4149298;34;20083;-85
2022/06/10 01:46:30;;;;;;;;;;;20.40;66.50;;;19.71;62.25;95660.97;4149268;34;20355;-86
2022/06/10 01:49:08;;;;;;;;;;;20.30;66.50;;;19.69;62.07;95663.25;4149239;34;19904;-85
2022/06/10 01:51:45;;;;;;;;;;;20.30;66.50;;;19.70;62.03;95660.16;4149892;34;20075;-85
2022/06/10 01:54:17;;;;;;;;;;;20.30;66.50;;;19.69;62.02;95661.31;4126686;34;20059;-85
2022/06/10 01:56:48;;;;;;;;;;;20.30;66.50;;;19.69;61.94;95663.25;4149214;34;20117;-85
2022/06/10 01:59:21;;;;;;;;;;;20.30;66.50;;;19.69;62.00;95663.25;4126638;34;20163;-84
2022/06/10 02:01:54;;;;;;;;;;;20.30;66.70;;;19.69;62.19;95668.81;4126304;34;19981;-85
2022/06/10 02:04:25;;;;;;;;;;;20.30;66.60;;;19.66;61.77;95663.97;4149301;34;19956;-86
2022/06/10 02:06:57;;;;;;;;;;;20.30;66.50;;;19.68;62.12;95672.78;4172161;34;19904;-85
2022/06/10 02:09:29;;;;;;;;;;;20.30;66.50;;;19.68;62.05;95672.78;4148954;34;20095;-86
2022/06/10 02:12:01;;;;;;;;;;;20.30;66.50;;;19.67;62.10;95676.72;4148769;34;19908;-85
2022/06/10 02:14:36;;;;;;;;;;;20.30;66.50;;;19.67;61.85;95680.28;4149148;34;20213;-84
2022/06/10 02:17:07;;;;;;;;;;;20.30;66.50;;;19.67;61.90;95676.72;4148690;34;20134;-85
2022/06/10 02:19:38;;;;;;;;;;;20.30;66.50;;;19.68;62.16;95689.44;4174312;34;19911;-85
2022/06/10 02:22:09;;;;;;;;;;;20.30;66.50;;;19.65;62.07;95692.91;4173917;34;19910;-85
2022/06/10 02:24:40;;;;;;;;;;;20.30;66.60;;;19.65;62.11;95696.47;4152402;34;20166;-85
2022/06/10 02:27:12;;;;;;;;;;;20.30;66.60;;;19.66;61.73;95700.06;4155845;34;19903;-85
2022/06/10 02:29:46;;;;;;;;;;;20.30;66.50;;;19.65;62.15;95704.00;4178879;34;20059;-84
2022/06/10 02:32:16;;;;;;;;;;;20.30;66.50;;;19.65;61.94;95701.22;4155810;34;20071;-86
2022/06/10 02:34:44;;;;;;;;;;;20.30;66.50;;;19.65;61.95;95706.78;4178686;34;19910;-84
2022/06/10 02:37:18;;;;;;;;;;;20.30;66.50;;;19.65;61.94;95704.00;4201918;33;20380;-86
2022/06/10 02:39:52;;;;;;;;;;;20.30;66.50;;;19.63;61.80;95705.16;4154874;34;20095;-85
2022/06/10 02:42:24;;;;;;;;;;;20.30;66.50;;;19.65;61.90;95715.91;4155437;34;20116;-85
2022/06/10 02:45:02;;;;;;;;;;;20.30;66.50;;;19.62;62.27;95711.06;4200863;33;19903;-86
2022/06/10 02:47:40;;;;;;;;;;;20.30;66.50;;;19.63;61.84;95715.44;4178631;34;20074;-85
2022/06/10 02:50:09;;;;;;;;;;;20.30;66.50;;;19.63;61.79;95723.75;4178047;34;19919;-85
2022/06/10 02:52:38;;;;;;;;;;;20.30;66.40;;;19.63;62.17;95718.19;4155599;34;19904;-86
2022/06/10 02:55:12;;;;;;;;;;;20.30;66.50;;;19.62;62.03;95722.16;4178513;34;20062;-86
2022/06/10 03:03:22;;;;;;;;;;;20.30;66.50;;;19.61;61.95;95729.66;4155610;34;20174;-86
2022/06/10 03:05:55;;;;;;;;;;;20.30;66.50;;;19.61;61.69;95729.66;4155606;34;20375;-86
2022/06/10 03:08:30;;;;;;;;;;;20.30;66.40;;;19.60;61.61;95716.94;4155409;34;19903;-86
2022/06/10 03:11:11;;;;;;;;;;;20.30;66.40;;;19.62;61.88;95725.75;4155037;34;20043;-85
2022/06/10 03:13:50;;;;;;;;;;;20.30;66.30;;;19.60;61.86;95733.59;4178323;34;19903;-85
2022/06/10 03:16:33;;;;;;;;;;;20.30;66.30;;;19.59;61.61;95726.41;4178374;34;20243;-86
2022/06/10 03:19:09;;;;;;;;;;;20.30;66.40;;;19.60;61.75;95728.03;4178237;34;19910;-85
2022/06/10 03:21:59;;;;;;;;;;;20.30;66.30;;;19.60;62.03;95739.16;4155243;34;19903;-85
2022/06/10 03:24:36;;;;;;;;;;;20.30;66.40;;;19.59;61.61;95740.28;4178090;34;20039;-86
2022/06/10 03:27:10;;;;;;;;;;;20.30;66.30;;;19.59;61.82;95743.06;4178125;34;20156;-85
2022/06/10 03:29:47;;;;;;;;;;;20.30;66.30;;;19.58;61.65;95741.44;4154952;34;20044;-86
2022/06/10 03:32:19;;;;;;;;;;;20.30;66.30;;;19.60;61.64;95750.25;4155165;34;19903;-85
2022/06/10 03:34:53;;;;;;;;;;;20.30;66.30;;;19.60;61.92;95761.34;4155313;34;19903;-85
2022/06/10 03:37:22;;;;;;;;;;;20.30;66.40;;;19.60;61.79;95755.81;4178076;34;19907;-85
2022/06/10 03:39:52;;;;;;;;;;;20.30;66.20;;;19.61;61.67;95749.09;4154800;34;20075;-85
2022/06/10 03:42:22;;;;;;;;;;;20.30;66.30;;;19.60;62.01;95755.81;4177991;34;19911;-87
2022/06/10 03:44:52;;;;;;;;;;;20.30;66.30;;;19.60;61.65;95750.25;4178136;34;20135;-84
2022/06/10 03:47:24;;;;;;;;;;;20.30;66.20;;;19.61;61.82;95751.88;4201026;33;20194;-86
2022/06/10 03:49:57;;;;;;;;;;;20.30;66.20;;;19.62;61.62;95761.84;4177595;34;20135;-86
2022/06/10 03:52:28;;;;;;;;;;;20.30;66.20;;;19.62;61.55;95759.06;4177969;34;20319;-86
2022/06/10 03:54:56;;;;;;;;;;;20.30;66.00;;;19.64;61.49;95761.47;4177770;34;19910;-85
2022/06/10 03:57:25;;;;;;;;;;;20.30;66.00;;;19.62;61.50;95758.25;4154983;34;20134;-85
2022/06/10 03:59:54;;;;;;;;;;;20.30;65.90;;;19.63;61.50;95754.31;4177433;34;19910;-84
2022/06/10 04:02:22;;;;;;;;;;;20.30;66.00;;;19.63;61.70;95754.31;4155134;34;20056;-86
2022/06/10 04:04:51;;;;;;;;;;;20.30;66.00;;;19.63;61.27;95760.69;4154889;34;19910;-84
2022/06/10 04:07:22;;;;;;;;;;;20.30;65.90;;;19.65;61.21;95753.97;4154987;34;20062;-87
2022/06/10 04:09:50;;;;;;;;;;;20.30;65.80;;;19.65;61.28;95763.09;4177433;34;20085;-85
2022/06/10 04:12:21;;;;;;;;;;;20.30;65.70;;;19.65;61.15;95753.97;4154501;34;19903;-85
2022/06/10 04:14:50;;;;;;;;;;;20.30;65.70;;;19.66;61.68;95759.19;4177808;34;20164;-85
2022/06/10 04:17:19;;;;;;;;;;;20.30;65.80;;;19.67;61.53;95755.25;4200937;33;19980;-85
2022/06/10 04:19:48;;;;;;;;;;;20.30;66.80;;;19.68;61.67;95756.09;4154660;34;20033;-85
2022/06/10 04:22:17;;;;;;;;;;;20.30;66.20;;;19.67;61.88;95755.25;4177543;34;19903;-85
2022/06/10 04:24:47;;;;;;;;;;;20.30;66.50;;;19.67;61.81;95760.81;4177636;34;19934;-86
2022/06/10 04:27:16;;;;;;;;;;;20.30;66.40;;;19.70;61.73;95764.84;4200686;33;19903;-86
2022/06/10 04:29:45;;;;;;;;;;;20.40;66.40;;;19.70;61.88;95764.84;4177439;34;19964;-85
2022/06/10 04:32:14;;;;;;;;;;;20.30;66.40;;;19.69;62.16;95769.63;4177171;34;19910;-84
2022/06/10 04:34:43;;;;;;;;;;;20.40;66.60;;;19.69;62.28;95763.22;4178347;34;19903;-85
2022/06/10 04:37:12;;;;;;;;;;;20.40;66.80;;;19.70;62.07;95765.69;4154521;34;20097;-85
2022/06/10 04:39:40;;;;;;;;;;;20.30;66.70;;;19.69;62.39;95774.34;4176856;34;19903;-85
2022/06/10 04:42:10;;;;;;;;;;;20.40;67.00;;;19.70;62.27;95779.56;4153841;34;19911;-84
2022/06/10 04:44:39;;;;;;;;;;;20.40;67.00;;;19.70;62.38;95778.75;4154447;34;19918;-85
2022/06/10 04:47:09;;;;;;;;;;;20.40;67.00;;;19.71;62.42;95794.25;4154479;34;19906;-84
2022/06/10 04:49:39;;;;;;;;;;;20.40;67.10;;;19.69;62.62;95800.16;4177183;34;20087;-85
2022/06/10 04:52:08;;;;;;;;;;;20.40;67.20;;;19.68;62.67;95795.75;4177891;34;19903;-85
2022/06/10 04:54:37;;;;;;;;;;;20.40;67.20;;;19.70;62.65;95803.75;4177327;34;19903;-85
2022/06/10 04:57:07;;;;;;;;;;;20.40;67.30;;;19.69;62.55;95807.66;4153849;34;19907;-85
2022/06/10 04:59:37;;;;;;;;;;;20.40;67.30;;;19.69;62.48;95797.38;4154305;34;20116;-85
2022/06/10 05:02:06;;;;;;;;;;;20.30;67.30;;;19.69;62.90;95814.06;4153927;34;19903;-85
2022/06/10 05:04:35;;;;;;;;;;;20.30;67.20;;;19.68;62.53;95812.41;4154267;34;19910;-85
2022/06/10 05:07:04;;;;;;;;;;;20.30;66.90;;;19.68;62.52;95822.72;4154348;34;19903;-85
2022/06/10 05:09:33;;;;;;;;;;;20.40;66.90;;;19.68;62.71;95817.97;4178141;34;19903;-85
2022/06/10 05:12:02;;;;;;;;;;;20.30;67.00;;;19.68;62.73;95826.31;4176605;34;20161;-85
2022/06/10 05:14:30;;;;;;;;;;;20.30;67.10;;;19.69;62.44;95827.09;4177114;34;19903;-85
2022/06/10 05:17:00;;;;;;;;;;;20.30;67.20;;;19.69;62.66;95821.56;4176979;34;19910;-85
2022/06/10 05:19:29;;;;;;;;;;;20.30;67.30;;;19.69;62.49;95821.56;4154181;34;19903;-85
2022/06/10 05:21:58;;;;;;;;;;;20.30;67.30;;;19.69;62.80;95836.25;4176545;34;19903;-85
2022/06/10 05:24:27;;;;;;;;;;;20.40;67.40;;;19.70;62.97;95832.34;4176975;34;19903;-85
2022/06/10 05:26:56;;;;;;;;;;;20.40;67.50;;;19.70;62.81;95829.56;4176798;34;19903;-85
2022/06/10 05:29:24;;;;;;;;;;;20.40;67.50;;;19.71;62.92;95835.91;4154167;34;19903;-85
2022/06/10 05:31:53;;;;;;;;;;;20.40;67.50;;;19.72;62.95;95823.66;4153612;34;20131;-85
2022/06/10 05:37:09;;;;;;;;;;;20.40;67.50;;;19.80;62.57;95836.69;4153857;34;20230;-84
2022/06/10 05:39:38;;;;;;;;;;;20.50;67.30;;;19.83;62.69;95841.53;4176837;34;20130;-85
2022/06/10 05:42:06;;;;;;;;;;;20.50;67.50;;;19.85;62.19;95844.78;4177428;34;19942;-85
2022/06/10 05:44:37;;;;;;;;;;;20.50;66.80;;;19.89;62.31;95848.56;4176960;34;19934;-85
2022/06/10 05:47:07;;;;;;;;;;;20.50;66.80;;;19.89;62.48;95843.00;4177732;34;19904;-84
2022/06/10 05:49:40;;;;;;;;;;;20.50;67.00;;;19.90;62.27;95839.06;4153965;34;19903;-85
2022/06/10 05:52:11;;;;;;;;;;;20.60;66.90;;;19.91;62.63;95831.53;4178556;34;19910;-85
2022/06/10 05:54:40;;;;;;;;;;;20.60;67.00;;;19.89;62.48;95829.09;4156363;34;19910;-85
2022/06/10 05:57:09;;;;;;;;;;;20.60;67.00;;;19.89;62.26;95829.09;4179221;34;20086;-84
2022/06/10 05:59:37;;;;;;;;;;;20.60;66.80;;;19.91;62.60;95837.91;4179241;34;19914;-85
2022/06/10 06:02:10;;;;;;;;;;;20.60;67.10;;;19.92;62.62;95841.50;4178807;34;19910;-85
2022/06/10 06:04:40;;;;;;;;;;;20.60;67.10;;;19.92;62.44;95839.53;4156434;34;20058;-85
2022/06/10 06:07:09;;;;;;;;;;;20.60;66.70;;;19.93;61.80;95841.16;4156222;34;20163;-84
2022/06/10 06:09:38;;;;;;;;;;;20.60;66.40;;;19.96;61.79;95844.41;4179161;34;20233;-84
2022/06/10 06:12:07;;;;;;;;;;;20.60;66.20;;;19.96;62.65;95839.66;4178456;34;20126;-85
2022/06/10 06:14:36;;;;;;;;;;;20.60;67.20;;;19.98;62.30;95845.69;4156549;34;20183;-85
2022/06/10 06:17:05;;;;;;;;;;;20.60;67.00;;;19.98;62.69;95845.69;4179821;34;19910;-85
2022/06/10 06:19:34;;;;;;;;;;;20.60;67.00;;;19.99;63.00;95847.34;4155825;34;19903;-84
2022/06/10 06:22:05;;;;;;;;;;;20.70;67.50;;;20.00;62.90;95840.63;4155414;34;19903;-85
2022/06/10 06:24:34;;;;;;;;;;;20.70;67.60;;;20.01;62.69;95841.41;4179013;34;20226;-85
2022/06/10 06:27:03;;;;;;;;;;;20.70;67.30;;;20.03;62.39;95841.91;4155889;34;19903;-85
2022/06/10 06:29:32;;;;;;;;;;;20.70;67.00;;;20.03;62.68;95839.13;4178895;34;19903;-85
2022/06/10 06:32:01;;;;;;;;;;;20.70;67.20;;;20.03;62.14;95839.13;4155506;34;20031;-84
2022/06/10 06:34:29;;;;;;;;;;;20.70;66.80;;;20.03;62.44;95833.56;4201964;33;20165;-85
2022/06/10 06:36:58;;;;;;;;;;;20.70;67.00;;;20.02;62.90;95835.50;4155739;34;20138;-85
2022/06/10 06:39:28;;;;;;;;;;;20.70;67.50;;;20.02;62.23;95843.84;4155908;34;19911;-85
2022/06/10 06:42:02;;;;;;;;;;;20.70;66.60;;;20.04;62.66;95840.75;4155500;34;20058;-85
2022/06/10 06:44:44;;;;;;;;;;;20.70;67.20;;;20.04;62.90;95849.88;4177481;34;20148;-86
2022/06/10 06:47:13;;;;;;;;;;;20.70;67.40;;;20.06;62.56;95844.00;4178646;34;20071;-86
2022/06/10 06:49:42;;;;;;;;;;;20.70;67.00;;;20.05;62.69;95847.94;4155824;34;19903;-85
2022/06/10 06:52:11;;;;;;;;;;;20.70;67.40;;;20.06;63.12;95855.13;4179124;34;20380;-86
2022/06/10 06:54:41;;;;;;;;;;;20.70;67.50;;;20.05;62.85;95856.25;4155830;34;20342;-85
2022/06/10 06:57:10;;;;;;;;;;;20.70;67.30;;;20.06;62.74;95850.34;4178572;34;20176;-85
2022/06/10 06:59:39;;;;;;;;;;;20.80;67.30;;;20.10;62.94;95853.25;4178525;34;19922;-85
2022/06/10 07:02:10;;;;;;;;;;;20.80;67.00;;;20.12;62.66;95853.75;4201239;33;20118;-85
2022/06/10 07:04:39;;;;;;;;;;;20.80;67.00;;;20.11;62.44;95843.78;4149774;34;20338;-85
2022/06/10 07:07:07;;;;;;;;;;;20.80;67.00;;;20.13;62.67;95854.56;4150743;34;19919;-86
2022/06/10 07:10:16;;;;;;;;;;;20.80;67.20;;;20.15;62.75;95850.28;4132411;34;19983;-85
2022/06/10 07:13:01;;;;;;;;;;;;;;;;;;;;;
2022/06/10 07:15:31;;;;;;;;;;;20.80;66.50;;;20.26;61.92;95858.19;4176128;34;20157;-86
2022/06/10 07:18:00;;;;;;;;;;;20.90;66.40;;;20.30;61.58;95854.38;4155458;34;19952;-86
2022/06/10 07:20:44;;;;;;;;;;;20.90;66.30;;;20.35;62.03;95856.13;4178313;34;20108;-87
2022/06/10 07:23:38;;;;;;;;;;;21.00;66.20;;;20.38;61.77;95856.28;4155440;34;20030;-86
2022/06/10 07:26:17;;;;;;;;;;;21.00;66.10;;;20.41;61.70;95860.31;4178277;34;20003;-85
2022/06/10 07:33:08;;;;;;;;;;;21.10;66.20;;;20.35;62.00;95873.63;4151180;34;20035;-86
2022/06/10 07:35:37;;;;;;;;;;;21.00;66.30;;;20.32;61.99;95865.97;4138762;34;19910;-85
2022/06/10 07:38:09;;;;;;;;;;;21.00;66.20;;;20.31;62.18;95869.09;4155194;34;19955;-86
2022/06/10 07:43:30;;;;;;;;;;;21.00;66.30;;;20.27;62.25;95870.94;4178098;34;20027;-85
2022/06/10 07:46:02;;;;;;;;;;;20.90;66.60;;;20.24;62.13;95869.66;4155306;34;20255;-85
2022/06/10 07:48:58;;;;;;;;;;;20.90;66.50;;;20.23;62.32;95876.38;4155805;34;19903;-86
2022/06/10 07:51:36;;;;;;;;;;;20.90;66.70;;;20.21;62.16;95876.69;4152348;34;19926;-85
2022/06/10 07:54:36;;;;;;;;;;;20.90;66.60;;;20.22;61.93;95878.31;4177670;34;19967;-86
2022/06/10 07:57:07;;;;;;;;;;;20.90;66.40;;;20.23;62.40;95882.72;4177859;34;19903;-85
2022/06/10 07:59:39;;;;;;;;;;;20.90;66.70;;;20.21;62.32;95873.91;4178944;34;19904;-86
2022/06/10 08:02:09;;;;;;;;;;;20.90;66.80;;;20.21;62.20;95873.91;4177427;34;19903;-86
2022/06/10 08:04:37;;;;;;;;;;;20.90;66.90;;;20.23;62.31;95882.72;4155026;34;20133;-86
2022/06/10 08:07:09;;;;;;;;;;;20.90;66.90;;;20.23;62.50;95876.38;4177799;34;19903;-86
2022/06/10 08:09:37;;;;;;;;;;;20.90;66.90;;;20.21;62.50;95879.47;4177867;34;20164;-86
2022/06/10 08:12:07;;;;;;;;;;;20.90;67.10;;;20.21;62.39;95879.47;4154395;34;20112;-86
2022/06/10 08:14:37;;;;;;;;;;;20.90;66.70;;;20.19;62.44;95876.25;4154874;34;19903;-85
2022/06/10 08:17:19;;;;;;;;;;;20.90;67.00;;;20.20;62.66;95883.41;4177704;34;19911;-85
2022/06/10 08:19:48;;;;;;;;;;;20.80;67.60;;;20.18;62.40;95880.19;4178502;34;19903;-86
2022/06/10 08:22:35;;;;;;;;;;;20.80;67.00;;;20.18;62.61;95893.25;4200683;33;19909;-85
2022/06/10 08:25:06;;;;;;;;;;;20.80;67.00;;;20.16;62.61;95890.81;4177528;34;19903;-86
2022/06/10 08:27:37;;;;;;;;;;;20.80;67.10;;;20.15;62.85;95897.53;4177305;34;19918;-86
2022/06/10 08:30:12;;;;;;;;;;;20.80;67.30;;;20.14;62.58;95901.47;4154160;34;19903;-87
2022/06/10 08:32:41;;;;;;;;;;;20.80;67.20;;;20.14;62.60;95901.47;4176508;34;20029;-86
2022/06/10 08:35:11;;;;;;;;;;;20.80;67.20;;;20.12;62.77;95898.19;4176996;34;19904;-86
2022/06/10 08:37:43;;;;;;;;;;;20.80;67.20;;;20.11;63.04;95918.81;4154467;34;19959;-86
2022/06/10 08:40:28;;;;;;;;;;;20.80;67.30;;;20.09;63.11;95915.53;4177946;34;20078;-85
2022/06/10 08:43:01;;;;;;;;;;;20.80;67.50;;;20.11;62.97;95906.88;4177473;34;19968;-85
2022/06/10 08:45:37;;;;;;;;;;;20.80;67.60;;;20.08;62.81;95911.97;4154430;34;20366;-86
2022/06/10 08:51:17;;;;;;;;;;;20.80;67.30;;;20.04;62.93;95908.22;4147742;34;19910;-84
2022/06/10 08:53:58;;;;;;;;;;;20.70;67.60;;;20.07;62.89;95912.31;4177204;34;19903;-84
2022/06/10 08:56:30;;;;;;;;;;;20.70;67.60;;;20.07;63.08;95923.44;4200394;33;19911;-85
2022/06/10 08:59:11;;;;;;;;;;;20.70;67.60;;;20.06;63.11;95917.03;4200416;33;20101;-85
2022/06/10 09:01:48;;;;;;;;;;;20.70;67.50;;;20.05;62.77;95915.41;4176760;34;20166;-85
2022/06/10 09:04:33;;;;;;;;;;;20.70;67.50;;;20.06;62.94;95919.03;4177089;34;20090;-86
2022/06/10 09:07:06;;;;;;;;;;;20.70;67.50;;;20.05;62.61;95922.97;4177118;33;19903;-85
2022/06/10 09:09:35;;;;;;;;;;;20.70;67.30;;;20.05;63.14;95923.75;4177203;34;20041;-85
2022/06/10 09:12:11;;;;;;;;;;;20.70;67.40;;;20.06;62.50;95924.59;4153688;34;19911;-85
2022/06/10 09:14:40;;;;;;;;;;;20.70;67.40;;;20.04;63.08;95924.09;4178097;34;19904;-85
2022/06/10 09:17:13;;;;;;;;;;;20.70;67.50;;;20.04;62.44;95922.13;4154337;34;20130;-85
2022/06/10 09:19:51;;;;;;;;;;;20.70;67.10;;;20.03;62.69;95930.81;4154059;34;19903;-85
2022/06/10 09:22:25;;;;;;;;;;;20.70;67.00;;;20.03;62.40;95933.59;4154808;34;19903;-86
2022/06/10 09:24:58;;;;;;;;;;;20.70;67.20;;;20.01;63.03;95935.88;4149539;34;19903;-85
2022/06/10 09:27:29;;;;;;;;;;;20.70;67.50;;;20.00;62.62;95935.09;4126611;34;19968;-86
2022/06/10 09:29:58;;;;;;;;;;;20.70;67.20;;;19.99;62.75;95938.19;4125900;34;20423;-84
2022/06/10 09:32:36;;;;;;;;;;;20.70;67.50;;;20.00;62.70;95929.53;4176898;34;20024;-83
2022/06/10 09:35:11;;;;;;;;;;;20.70;67.50;;;20.01;62.64;95935.88;4176873;34;19903;-86
2022/06/10 09:37:45;;;;;;;;;;;20.70;67.30;;;20.00;62.73;95931.47;4153831;34;19903;-84
2022/06/10 09:43:27;;;;;;;;;;;20.70;67.50;;;19.99;63.16;95936.25;4139879;34;19960;-86
2022/06/10 09:49:36;;;;;;;;;;;20.60;67.50;;;19.99;62.78;95938.19;4177612;34;19910;-84
2022/06/10 09:52:11;;;;;;;;;;;20.60;67.30;;;19.99;62.96;95940.97;4199685;33;20245;-85
2022/06/10 09:55:34;;;;;;;;;;;20.60;67.30;;;19.99;63.14;95941.78;4176728;34;19910;-86
2022/06/10 09:59:09;;;;;;;;;;;20.60;67.50;;;19.98;63.02;95948.50;4155230;34;20142;-85
2022/06/10 10:01:41;;;;;;;;;;;20.70;67.60;;;19.99;63.18;95949.31;4153452;34;20069;-85
2022/06/10 10:04:47;;;;;;;;;;;20.60;67.60;;;19.98;63.03;95948.50;4153968;34;19908;-85
2022/06/10 10:07:23;;;;;;;;;;;20.60;67.40;;;19.99;63.19;95950.13;4176530;34;19903;-86
2022/06/10 10:09:59;;;;;;;;;;;20.60;67.60;;;19.98;63.06;95958.78;4153413;34;20001;-85
2022/06/10 10:12:37;;;;;;;;;;;20.60;67.60;;;19.98;62.96;95953.22;4176795;34;19911;-86
2022/06/10 10:15:16;;;;;;;;;;;20.60;68.40;;;19.97;63.03;95952.44;4176623;34;20057;-85
2022/06/10 10:18:10;;;;;;;;;;;20.60;67.60;;;19.98;63.02;95947.66;4176463;34;19903;-84
2022/06/10 10:21:03;;;;;;;;;;;20.60;67.50;;;19.98;63.09;95950.44;4153224;34;19951;-85
2022/06/10 10:23:34;;;;;;;;;;;20.60;67.50;;;20.01;62.96;95952.56;4148988;34;19903;-85
2022/06/10 10:26:06;;;;;;;;;;;20.70;67.60;;;20.01;63.46;95955.34;4149005;34;20057;-86
2022/06/10 10:28:38;;;;;;;;;;;20.70;67.80;;;20.02;62.76;95946.66;4126415;34;20162;-85
2022/06/10 10:31:13;;;;;;;;;;;20.70;67.50;;;20.03;62.73;95951.06;4148616;34;20022;-85
2022/06/10 10:33:42;;;;;;;;;;;20.70;67.50;;;20.05;62.91;95940.44;4148956;34;19979;-85
2022/06/10 10:36:22;;;;;;;;;;;20.70;67.50;;;20.07;62.72;95945.66;4126185;34;19903;-86
2022/06/10 10:38:51;;;;;;;;;;;20.70;67.60;;;20.09;62.84;95937.78;4172649;34;20138;-85
2022/06/10 10:41:33;;;;;;;;;;;20.80;67.50;;;20.12;62.77;95944.66;4128285;34;19908;-85
2022/06/10 10:44:06;;;;;;;;;;;20.80;67.30;;;20.13;62.55;95944.28;4128683;34;20131;-85
2022/06/10 10:46:39;;;;;;;;;;;20.80;67.20;;;20.14;62.73;95945.91;4173996;34;20103;-85
2022/06/10 10:49:22;;;;;;;;;;;20.80;67.00;;;20.16;62.59;95948.34;4152122;34;20052;-85
2022/06/10 10:51:52;;;;;;;;;;;20.80;67.10;;;20.15;62.83;95944.78;4151640;34;20092;-85
2022/06/10 10:54:25;;;;;;;;;;;20.80;67.30;;;20.16;62.67;95949.19;4150982;34;19904;-86
2022/06/10 10:56:54;;;;;;;;;;;20.80;67.00;;;20.17;62.54;95938.88;4151095;34;19903;-85
2022/06/10 10:59:33;;;;;;;;;;;20.80;66.90;;;20.17;62.92;95945.25;4150883;34;20137;-85
2022/06/10 11:02:02;;;;;;;;;;;20.80;67.10;;;20.18;62.54;95949.66;4150569;34;20317;-85
2022/06/10 11:04:32;;;;;;;;;;;20.80;66.90;;;20.16;62.31;95940.84;4128485;34;20138;-85
2022/06/10 11:07:11;;;;;;;;;;;20.80;66.80;;;20.18;62.54;95940.50;4151251;34;19904;-85
2022/06/10 11:09:44;;;;;;;;;;;20.80;67.00;;;20.18;62.55;95929.38;4144969;34;19952;-86
2022/06/10 11:12:15;;;;;;;;;;;20.80;67.20;;;20.17;62.54;95925.78;4155157;34;20010;-83
2022/06/10 11:14:46;;;;;;;;;;;20.80;66.80;;;20.19;62.34;95937.38;4201365;33;19926;-85
2022/06/10 11:17:19;;;;;;;;;;;20.80;66.90;;;20.17;62.44;95931.34;4178441;34;19903;-85
2022/06/10 11:19:52;;;;;;;;;;;20.80;66.80;;;20.19;62.45;95931.00;4201369;33;20358;-85
2022/06/10 11:22:31;;;;;;;;;;;20.80;66.80;;;20.18;62.38;95929.38;4178461;34;20097;-86
2022/06/10 11:25:33;;;;;;;;;;;20.80;67.00;;;20.18;62.55;95919.09;4179119;34;19962;-86
2022/06/10 11:28:19;;;;;;;;;;;20.80;67.00;;;20.17;62.87;95911.91;4100534;34;19911;-84
2022/06/10 11:30:49;;;;;;;;;;;20.80;67.20;;;20.18;62.38;95924.66;4122510;34;20050;-85
2022/06/10 11:33:25;;;;;;;;;;;20.80;67.00;;;20.20;62.46;95924.28;4122378;34;20050;-85
2022/06/10 11:36:10;;;;;;;;;;;20.80;66.90;;;20.21;62.34;95923.16;4178333;34;20102;-85
2022/06/10 11:38:51;;;;;;;;;;;20.90;66.80;;;20.23;62.51;95921.63;4155271;34;19910;-86
2022/06/10 11:41:26;;;;;;;;;;;20.90;67.20;;;20.24;62.58;95912.16;4177723;34;20200;-85
2022/06/10 11:44:02;;;;;;;;;;;20.90;67.10;;;20.26;62.45;95916.56;4178044;34;19910;-85
2022/06/10 11:46:46;;;;;;;;;;;20.90;66.80;;;20.26;62.44;95913.78;4155119;34;19910;-86
2022/06/10 11:49:19;;;;;;;;;;;20.90;67.60;;;20.27;62.15;95923.75;4178760;34;19968;-85
2022/06/10 11:51:51;;;;;;;;;;;20.90;66.80;;;20.28;62.23;95922.59;4177644;34;20082;-86
2022/06/10 11:54:34;;;;;;;;;;;20.90;66.80;;;20.27;62.13;95926.53;4155058;34;19914;-86
2022/06/10 12:00:01;;;;;;;;;;;20.90;66.80;;;20.27;62.40;95921.75;4154353;34;20231;-85
2022/06/10 12:02:35;;;;;;;;;;;20.90;66.70;;;20.27;62.55;95912.63;4179039;34;19903;-85
2022/06/10 12:05:17;;;;;;;;;;;20.90;66.70;;;20.25;62.30;95918.53;4177793;34;20029;-85
2022/06/10 12:07:48;;;;;;;;;;;20.90;66.80;;;20.26;62.74;95908.22;4154898;34;20021;-85
2022/06/10 12:10:23;;;;;;;;;;;20.90;67.00;;;20.25;62.22;95912.97;4177347;34;20019;-85
2022/06/10 12:12:51;;;;;;;;;;;20.90;66.70;;;20.23;62.32;95916.09;4177874;34;20747;-86
2022/06/10 12:15:23;;;;;;;;;;;20.90;66.70;;;20.22;62.48;95914.44;4154311;34;19903;-86
2022/06/10 12:17:53;;;;;;;;;;;20.90;67.00;;;20.24;62.52;95919.69;4178698;34;20071;-86
2022/06/10 12:20:30;;;;;;;;;;;20.90;66.90;;;20.24;62.45;95923.28;4154582;34;20025;-86
2022/06/10 12:23:01;;;;;;;;;;;20.90;66.80;;;20.23;62.21;95916.09;4200945;33;19910;-86